Jessica S. Settoon — WDD9545 — position and weather

sailwx.info

Track history (hours):
 
Tides and Currents Weather Stations Pressure Air Temp Water Temp Dewpoint Dewpoint Depression Visibility Wind Speed Wind Dir Waves Ship Positions

Jessica S. Settoon

Owner: Settoon Towing LLC, Houma, LA. More information available from US FCC via Universal Licensing System and Coast Guard Vessel Documentation Center.

Last reported at 2015-Feb-27 17:09 UTC. Time now 2015-Mar-04 08:36 UTC.
Position N 29°47' W 091°19'.

Length 17 m; draft 3 m.

Type: Tug. MMSI: 367312940.

Date/timePositionNaut miles runAvg speedWind from/ knotsBaromVisibWave heightAir tempDewpointWater temp
2015-Feb-27 17:09N 29°47' W 091°19'0 0.0
2015-Feb-27 16:31N 29°47' W 091°19'0 0.0
2015-Feb-27 15:30N 29°47' W 091°19'0 0.0
2015-Feb-27 14:33N 29°47' W 091°19'0 0.0
2015-Feb-27 13:33N 29°47' W 091°19'0 0.0
2015-Feb-27 12:33N 29°47' W 091°19'0 0.0
2015-Feb-27 11:33N 29°47' W 091°19'0 0.0
2015-Feb-27 10:33N 29°47' W 091°19'0 0.0
2015-Feb-27 09:33N 29°47' W 091°19'0 0.0
2015-Feb-27 08:33N 29°47' W 091°19'0 0.0
2015-Feb-27 07:33N 29°47' W 091°19'0 0.0
2015-Feb-27 06:33N 29°47' W 091°19'0 0.0
2015-Feb-27 05:33N 29°47' W 091°19'0 0.0
2015-Feb-27 04:33N 29°47' W 091°19'0 0.0
2015-Feb-27 03:33N 29°47' W 091°19'0 0.0
2015-Feb-27 02:33N 29°47' W 091°19'0 0.0
2015-Feb-27 01:33N 29°47' W 091°19'0 0.0
2015-Feb-27 00:33N 29°47' W 091°19'0 0.0
2015-Feb-26 23:33N 29°47' W 091°19'0 0.0
2015-Feb-26 00:31N 29°47' W 091°19'0 0.0
2015-Feb-25 23:33N 29°47' W 091°19'0 0.0
2015-Feb-25 22:27N 29°47' W 091°19'0 0.0
2015-Feb-25 21:17N 29°47' W 091°19'3 3.8
2015-Feb-25 20:31N 29°48' W 091°16'3 2.9
2015-Feb-25 19:33N 29°49' W 091°12'4 4.4
2015-Feb-25 18:33N 29°45' W 091°11'4 3.5
2015-Feb-25 17:33N 29°41' W 091°12'4 4.0
2015-Feb-25 16:33N 29°40' W 091°08'9 6.0
2015-Feb-25 15:08N 29°37' W 090°59'2 0.1
2015-Feb-24 07:17N 29°38' W 090°56'0 0.2
2015-Feb-24 06:32N 29°38' W 090°56'0 0.0
2015-Feb-24 05:33N 29°38' W 090°56'0 0.5
2015-Feb-24 04:33N 29°37' W 090°56'5 4.7
2015-Feb-24 03:31N 29°37' W 091°02'6 5.9
2015-Feb-24 02:33N 29°40' W 091°08'2 2.2
2015-Feb-24 01:33N 29°41' W 091°10'2 1.6
2015-Feb-24 00:33N 29°41' W 091°12'1 1.0
2015-Feb-23 23:33N 29°42' W 091°13'1 1.5
2015-Feb-23 22:33N 29°43' W 091°12'5 4.6
2015-Feb-23 21:33N 29°48' W 091°11'3 3.0
2015-Feb-23 20:33N 29°48' W 091°14'3 2.7
2015-Feb-23 19:33N 29°48' W 091°17'1 1.5
2015-Feb-23 18:33N 29°47' W 091°19'0 0.0
2015-Feb-23 17:33N 29°47' W 091°19'0 0.0
2015-Feb-23 16:33N 29°47' W 091°19'0 0.0
2015-Feb-23 15:33N 29°47' W 091°19'0 0.0
2015-Feb-23 14:33N 29°47' W 091°19'0 0.0
2015-Feb-23 13:33N 29°47' W 091°19'0 0.0
2015-Feb-23 12:33N 29°47' W 091°19'0 0.0
2015-Feb-23 11:33N 29°47' W 091°19'0 0.0
2015-Feb-23 10:33N 29°47' W 091°19'0 0.0
2015-Feb-23 09:33N 29°47' W 091°19'0 0.0
2015-Feb-23 08:33N 29°47' W 091°19'0 0.0
2015-Feb-23 07:33N 29°47' W 091°19'0 0.0
2015-Feb-23 06:33N 29°47' W 091°19'0 0.0
2015-Feb-23 05:33N 29°47' W 091°19'0 0.0
2015-Feb-23 04:33N 29°47' W 091°19'0 0.0
2015-Feb-23 03:33N 29°47' W 091°19'0 0.0
2015-Feb-23 02:33N 29°47' W 091°19'0 0.0
2015-Feb-23 01:32N 29°47' W 091°19'0 0.0
2015-Feb-23 00:32N 29°47' W 091°19'0 0.0
2015-Feb-22 23:33N 29°47' W 091°19'0 0.0
2015-Feb-22 22:33N 29°47' W 091°19'0 0.0
2015-Feb-22 21:33N 29°47' W 091°19'0 0.0
2015-Feb-22 20:33N 29°47' W 091°19'0 0.0
2015-Feb-22 19:33N 29°47' W 091°19'0 0.0
2015-Feb-22 18:33N 29°47' W 091°19'0 0.0
2015-Feb-22 17:33N 29°47' W 091°19'0 0.0
2015-Feb-22 16:22N 29°47' W 091°19'0 0.0
2015-Feb-22 15:28N 29°47' W 091°19'0 0.0
2015-Feb-22 14:33N 29°47' W 091°19'0 0.0
2015-Feb-22 13:33N 29°47' W 091°19'0 0.0
2015-Feb-22 12:33N 29°47' W 091°19'0 0.0
2015-Feb-22 11:33N 29°47' W 091°19'0 0.0
2015-Feb-22 10:33N 29°47' W 091°19'0 0.0
2015-Feb-22 09:33N 29°47' W 091°19'0 0.0
2015-Feb-22 08:33N 29°47' W 091°19'0 0.0
2015-Feb-22 07:33N 29°47' W 091°19'0 0.0
2015-Feb-22 06:33N 29°47' W 091°19'0 0.0
2015-Feb-22 05:31N 29°47' W 091°19'0 0.0
2015-Feb-22 04:33N 29°47' W 091°19'0 0.0
2015-Feb-22 03:33N 29°47' W 091°19'0 0.0
2015-Feb-22 02:33N 29°47' W 091°19'0 0.0
2015-Feb-22 01:33N 29°47' W 091°19'0 0.0
2015-Feb-22 00:33N 29°47' W 091°19'0 0.0
2015-Feb-21 23:31N 29°47' W 091°19'0 0.0
2015-Feb-21 22:23N 29°47' W 091°19'0 0.0
2015-Feb-21 21:33N 29°47' W 091°19'0 0.0
2015-Feb-21 20:33N 29°47' W 091°19'0 0.0
2015-Feb-21 19:33N 29°47' W 091°19'0 0.0
2015-Feb-21 18:33N 29°47' W 091°19'0 0.0
2015-Feb-21 17:33N 29°47' W 091°19'0 0.0
2015-Feb-21 16:31N 29°47' W 091°19'0 0.0
2015-Feb-21 15:25N 29°47' W 091°19'0 0.0
2015-Feb-21 14:33N 29°47' W 091°19'0 0.0
2015-Feb-21 13:33N 29°47' W 091°19'0 0.0
2015-Feb-21 12:33N 29°47' W 091°19'0 0.0
2015-Feb-21 11:33N 29°47' W 091°19'0 0.0
2015-Feb-21 10:33N 29°47' W 091°19'0 0.0
2015-Feb-21 09:33N 29°47' W 091°19'0 0.0
2015-Feb-21 08:33N 29°47' W 091°19'0 0.0
2015-Feb-21 07:33N 29°47' W 091°19'0 0.0
2015-Feb-21 06:33N 29°47' W 091°19'0 0.0
2015-Feb-21 05:33N 29°47' W 091°19'0 0.0
2015-Feb-21 04:33N 29°47' W 091°19'0 0.0
2015-Feb-21 03:33N 29°47' W 091°19'0 0.0
2015-Feb-21 02:33N 29°47' W 091°19'0 0.0
2015-Feb-21 01:33N 29°47' W 091°19'0 0.0
2015-Feb-21 00:33N 29°47' W 091°19'0 0.0
2015-Feb-20 23:33N 29°47' W 091°19'0 0.0
2015-Feb-20 22:33N 29°47' W 091°19'0 0.0
2015-Feb-20 21:33N 29°47' W 091°19'0 0.2
2015-Feb-20 20:34N 29°47' W 091°18'4 3.5
2015-Feb-20 19:32N 29°48' W 091°14'3 3.2
2015-Feb-20 18:33N 29°48' W 091°11'4 4.5
2015-Feb-20 17:33N 29°44' W 091°11'3 2.9
2015-Feb-20 16:34N 29°41' W 091°10'6 5.4
2015-Feb-20 15:30N 29°38' W 091°05'5 5.2
2015-Feb-20 14:27N 29°37' W 090°58'2 0.1
2015-Feb-19 07:26N 29°37' W 090°56'0 0.1
2015-Feb-19 05:14N 29°38' W 090°56'0 0.5
2015-Feb-19 04:28N 29°37' W 090°56'4 4.6
2015-Feb-19 03:33N 29°37' W 091°01'6 5.9
2015-Feb-19 02:33N 29°39' W 091°07'6 5.8
2015-Feb-19 01:33N 29°42' W 091°13'6 5.6
2015-Feb-19 00:33N 29°47' W 091°10'3 3.1
2015-Feb-18 23:33N 29°48' W 091°14'2 2.2
2015-Feb-18 22:31N 29°48' W 091°16'2 2.0
2015-Feb-18 21:25N 29°47' W 091°19'0 0.0
2015-Feb-18 18:33N 29°47' W 091°19'0 0.0
2015-Feb-18 17:31N 29°47' W 091°19'0 0.0
2015-Feb-18 16:29N 29°47' W 091°19'0 0.0
2015-Feb-18 15:29N 29°47' W 091°19'0 0.0
2015-Feb-18 14:30N 29°47' W 091°19'0 0.0
2015-Feb-18 13:33N 29°47' W 091°19'0 0.0
2015-Feb-18 12:33N 29°47' W 091°19'0 0.0
2015-Feb-18 11:34N 29°47' W 091°19'0 0.0
2015-Feb-18 10:33N 29°47' W 091°19'0 0.0
2015-Feb-18 09:33N 29°47' W 091°19'0 0.0
2015-Feb-18 08:33N 29°47' W 091°19'0 0.0
2015-Feb-18 07:33N 29°47' W 091°19'0 0.0
2015-Feb-18 06:33N 29°47' W 091°19'0 0.0
2015-Feb-18 05:34N 29°47' W 091°19'0 0.0
2015-Feb-18 04:34N 29°47' W 091°19'0 0.0
2015-Feb-18 03:33N 29°47' W 091°19'0 0.0
2015-Feb-18 02:34N 29°47' W 091°19'0 0.0
2015-Feb-18 01:33N 29°47' W 091°19'0 0.0
2015-Feb-18 00:34N 29°47' W 091°19'0 0.0
2015-Feb-17 23:33N 29°47' W 091°19'0 0.0
2015-Feb-17 22:33N 29°47' W 091°19'0 0.0
2015-Feb-17 21:34N 29°47' W 091°19'0 0.0
2015-Feb-17 20:33N 29°47' W 091°19'0 0.0
2015-Feb-17 19:34N 29°47' W 091°19'0 0.0
2015-Feb-17 17:33N 29°47' W 091°19'  
Track history (hours):
 
Tides and Currents Weather Stations Pressure Air Temp Water Temp Dewpoint Dewpoint Depression Visibility Wind Speed Wind Dir Waves Ship Positions

Jessica S. Settoon

Owner: Settoon Towing LLC, Houma, LA. More information available from US FCC via Universal Licensing System and Coast Guard Vessel Documentation Center.

Last reported at 2015-Feb-27 17:09 UTC. Time now 2015-Mar-04 08:36 UTC.
Position N 29°47' W 091°19'.

Length 17 m; draft 3 m.

Type: Tug. MMSI: 367312940.

Date/timePositionNaut miles runAvg speedWind from/ knotsBaromVisibWave heightAir tempDewpointWater temp
2015-Feb-27 17:09N 29°47' W 091°19'0 0.0
2015-Feb-27 16:31N 29°47' W 091°19'0 0.0
2015-Feb-27 15:30N 29°47' W 091°19'0 0.0
2015-Feb-27 14:33N 29°47' W 091°19'0 0.0
2015-Feb-27 13:33N 29°47' W 091°19'0 0.0
2015-Feb-27 12:33N 29°47' W 091°19'0 0.0
2015-Feb-27 11:33N 29°47' W 091°19'0 0.0
2015-Feb-27 10:33N 29°47' W 091°19'0 0.0
2015-Feb-27 09:33N 29°47' W 091°19'0 0.0
2015-Feb-27 08:33N 29°47' W 091°19'0 0.0
2015-Feb-27 07:33N 29°47' W 091°19'0 0.0
2015-Feb-27 06:33N 29°47' W 091°19'0 0.0
2015-Feb-27 05:33N 29°47' W 091°19'0 0.0
2015-Feb-27 04:33N 29°47' W 091°19'0 0.0
2015-Feb-27 03:33N 29°47' W 091°19'0 0.0
2015-Feb-27 02:33N 29°47' W 091°19'0 0.0
2015-Feb-27 01:33N 29°47' W 091°19'0 0.0
2015-Feb-27 00:33N 29°47' W 091°19'0 0.0
2015-Feb-26 23:33N 29°47' W 091°19'0 0.0
2015-Feb-26 00:31N 29°47' W 091°19'0 0.0
2015-Feb-25 23:33N 29°47' W 091°19'0 0.0
2015-Feb-25 22:27N 29°47' W 091°19'0 0.0
2015-Feb-25 21:17N 29°47' W 091°19'3 3.8
2015-Feb-25 20:31N 29°48' W 091°16'3 2.9
2015-Feb-25 19:33N 29°49' W 091°12'4 4.4
2015-Feb-25 18:33N 29°45' W 091°11'4 3.5
2015-Feb-25 17:33N 29°41' W 091°12'4 4.0
2015-Feb-25 16:33N 29°40' W 091°08'9 6.0
2015-Feb-25 15:08N 29°37' W 090°59'2 0.1
2015-Feb-24 07:17N 29°38' W 090°56'0 0.2
2015-Feb-24 06:32N 29°38' W 090°56'0 0.0
2015-Feb-24 05:33N 29°38' W 090°56'0 0.5
2015-Feb-24 04:33N 29°37' W 090°56'5 4.7
2015-Feb-24 03:31N 29°37' W 091°02'6 5.9
2015-Feb-24 02:33N 29°40' W 091°08'2 2.2
2015-Feb-24 01:33N 29°41' W 091°10'2 1.6
2015-Feb-24 00:33N 29°41' W 091°12'1 1.0
2015-Feb-23 23:33N 29°42' W 091°13'1 1.5
2015-Feb-23 22:33N 29°43' W 091°12'5 4.6
2015-Feb-23 21:33N 29°48' W 091°11'3 3.0
2015-Feb-23 20:33N 29°48' W 091°14'3 2.7
2015-Feb-23 19:33N 29°48' W 091°17'1 1.5
2015-Feb-23 18:33N 29°47' W 091°19'0 0.0
2015-Feb-23 17:33N 29°47' W 091°19'0 0.0
2015-Feb-23 16:33N 29°47' W 091°19'0 0.0
2015-Feb-23 15:33N 29°47' W 091°19'0 0.0
2015-Feb-23 14:33N 29°47' W 091°19'0 0.0
2015-Feb-23 13:33N 29°47' W 091°19'0 0.0
2015-Feb-23 12:33N 29°47' W 091°19'0 0.0
2015-Feb-23 11:33N 29°47' W 091°19'0 0.0
2015-Feb-23 10:33N 29°47' W 091°19'0 0.0
2015-Feb-23 09:33N 29°47' W 091°19'0 0.0
2015-Feb-23 08:33N 29°47' W 091°19'0 0.0
2015-Feb-23 07:33N 29°47' W 091°19'0 0.0
2015-Feb-23 06:33N 29°47' W 091°19'0 0.0
2015-Feb-23 05:33N 29°47' W 091°19'0 0.0
2015-Feb-23 04:33N 29°47' W 091°19'0 0.0
2015-Feb-23 03:33N 29°47' W 091°19'0 0.0
2015-Feb-23 02:33N 29°47' W 091°19'0 0.0
2015-Feb-23 01:32N 29°47' W 091°19'0 0.0
2015-Feb-23 00:32N 29°47' W 091°19'0 0.0
2015-Feb-22 23:33N 29°47' W 091°19'0 0.0
2015-Feb-22 22:33N 29°47' W 091°19'0 0.0
2015-Feb-22 21:33N 29°47' W 091°19'0 0.0
2015-Feb-22 20:33N 29°47' W 091°19'0 0.0
2015-Feb-22 19:33N 29°47' W 091°19'0 0.0
2015-Feb-22 18:33N 29°47' W 091°19'0 0.0
2015-Feb-22 17:33N 29°47' W 091°19'0 0.0
2015-Feb-22 16:22N 29°47' W 091°19'0 0.0
2015-Feb-22 15:28N 29°47' W 091°19'0 0.0
2015-Feb-22 14:33N 29°47' W 091°19'0 0.0
2015-Feb-22 13:33N 29°47' W 091°19'0 0.0
2015-Feb-22 12:33N 29°47' W 091°19'0 0.0
2015-Feb-22 11:33N 29°47' W 091°19'0 0.0
2015-Feb-22 10:33N 29°47' W 091°19'0 0.0
2015-Feb-22 09:33N 29°47' W 091°19'0 0.0
2015-Feb-22 08:33N 29°47' W 091°19'0 0.0
2015-Feb-22 07:33N 29°47' W 091°19'0 0.0
2015-Feb-22 06:33N 29°47' W 091°19'0 0.0
2015-Feb-22 05:31N 29°47' W 091°19'0 0.0
2015-Feb-22 04:33N 29°47' W 091°19'0 0.0
2015-Feb-22 03:33N 29°47' W 091°19'0 0.0
2015-Feb-22 02:33N 29°47' W 091°19'0 0.0
2015-Feb-22 01:33N 29°47' W 091°19'0 0.0
2015-Feb-22 00:33N 29°47' W 091°19'0 0.0
2015-Feb-21 23:31N 29°47' W 091°19'0 0.0
2015-Feb-21 22:23N 29°47' W 091°19'0 0.0
2015-Feb-21 21:33N 29°47' W 091°19'0 0.0
2015-Feb-21 20:33N 29°47' W 091°19'0 0.0
2015-Feb-21 19:33N 29°47' W 091°19'0 0.0
2015-Feb-21 18:33N 29°47' W 091°19'0 0.0
2015-Feb-21 17:33N 29°47' W 091°19'0 0.0
2015-Feb-21 16:31N 29°47' W 091°19'0 0.0
2015-Feb-21 15:25N 29°47' W 091°19'0 0.0
2015-Feb-21 14:33N 29°47' W 091°19'0 0.0
2015-Feb-21 13:33N 29°47' W 091°19'0 0.0
2015-Feb-21 12:33N 29°47' W 091°19'0 0.0
2015-Feb-21 11:33N 29°47' W 091°19'0 0.0
2015-Feb-21 10:33N 29°47' W 091°19'0 0.0
2015-Feb-21 09:33N 29°47' W 091°19'0 0.0
2015-Feb-21 08:33N 29°47' W 091°19'0 0.0
2015-Feb-21 07:33N 29°47' W 091°19'0 0.0
2015-Feb-21 06:33N 29°47' W 091°19'0 0.0
2015-Feb-21 05:33N 29°47' W 091°19'0 0.0
2015-Feb-21 04:33N 29°47' W 091°19'0 0.0
2015-Feb-21 03:33N 29°47' W 091°19'0 0.0
2015-Feb-21 02:33N 29°47' W 091°19'0 0.0
2015-Feb-21 01:33N 29°47' W 091°19'0 0.0
2015-Feb-21 00:33N 29°47' W 091°19'0 0.0
2015-Feb-20 23:33N 29°47' W 091°19'0 0.0
2015-Feb-20 22:33N 29°47' W 091°19'0 0.0
2015-Feb-20 21:33N 29°47' W 091°19'0 0.2
2015-Feb-20 20:34N 29°47' W 091°18'4 3.5
2015-Feb-20 19:32N 29°48' W 091°14'3 3.2
2015-Feb-20 18:33N 29°48' W 091°11'4 4.5
2015-Feb-20 17:33N 29°44' W 091°11'3 2.9
2015-Feb-20 16:34N 29°41' W 091°10'6 5.4
2015-Feb-20 15:30N 29°38' W 091°05'5 5.2
2015-Feb-20 14:27N 29°37' W 090°58'2 0.1
2015-Feb-19 07:26N 29°37' W 090°56'0 0.1
2015-Feb-19 05:14N 29°38' W 090°56'0 0.5
2015-Feb-19 04:28N 29°37' W 090°56'4 4.6
2015-Feb-19 03:33N 29°37' W 091°01'6 5.9
2015-Feb-19 02:33N 29°39' W 091°07'6 5.8
2015-Feb-19 01:33N 29°42' W 091°13'6 5.6
2015-Feb-19 00:33N 29°47' W 091°10'3 3.1
2015-Feb-18 23:33N 29°48' W 091°14'2 2.2
2015-Feb-18 22:31N 29°48' W 091°16'2 2.0
2015-Feb-18 21:25N 29°47' W 091°19'0 0.0
2015-Feb-18 18:33N 29°47' W 091°19'0 0.0
2015-Feb-18 17:31N 29°47' W 091°19'0 0.0
2015-Feb-18 16:29N 29°47' W 091°19'0 0.0
2015-Feb-18 15:29N 29°47' W 091°19'0 0.0
2015-Feb-18 14:30N 29°47' W 091°19'0 0.0
2015-Feb-18 13:33N 29°47' W 091°19'0 0.0
2015-Feb-18 12:33N 29°47' W 091°19'0 0.0
2015-Feb-18 11:34N 29°47' W 091°19'0 0.0
2015-Feb-18 10:33N 29°47' W 091°19'0 0.0
2015-Feb-18 09:33N 29°47' W 091°19'0 0.0
2015-Feb-18 08:33N 29°47' W 091°19'0 0.0
2015-Feb-18 07:33N 29°47' W 091°19'0 0.0
2015-Feb-18 06:33N 29°47' W 091°19'0 0.0
2015-Feb-18 05:34N 29°47' W 091°19'0 0.0
2015-Feb-18 04:34N 29°47' W 091°19'0 0.0
2015-Feb-18 03:33N 29°47' W 091°19'0 0.0
2015-Feb-18 02:34N 29°47' W 091°19'0 0.0
2015-Feb-18 01:33N 29°47' W 091°19'0 0.0
2015-Feb-18 00:34N 29°47' W 091°19'0 0.0
2015-Feb-17 23:33N 29°47' W 091°19'0 0.0
2015-Feb-17 22:33N 29°47' W 091°19'0 0.0
2015-Feb-17 21:34N 29°47' W 091°19'0 0.0
2015-Feb-17 20:33N 29°47' W 091°19'0 0.0
2015-Feb-17 19:34N 29°47' W 091°19'0 0.0
2015-Feb-17 17:33N 29°47' W 091°19'  

Dump ship's entire track history